Terminal Aerodrome Forecast
Issued by NWS

Current Version | Previous Version | Text Only | Print | Product List | Glossary On
Versions: 1 2 3 4 5 6 7 8 9 10 11 12 13 14 15 16 17 18 19 20 21 22 23 24 25 26 27 28 29 30 31 32 33
000
FTUS44 KLUB 182346
TAFCDS
TAF
KCDS 182346Z 1900/1924 24014G22KT P6SM FEW120
     FM190200 19006KT P6SM BKN120
     FM190400 15007KT P6SM FEW120
     FM190700 12006KT 5SM BR FEW005
     FM191200 34015KT P6SM SCT015
     FM191400 35022G32KT P6SM SKC=

USA.gov is the U.S. government's official web portal to all federal, state and local government web resources and services.